createdAt,value
2023-05-14T00:01:10.477Z,3.92
2023-05-14T00:03:41.327Z,3.70
2023-05-14T00:06:11.801Z,3.42
2023-05-14T00:08:41.403Z,3.85
2023-05-14T00:11:11.285Z,4.30
2023-05-14T00:13:40.928Z,4.07
2023-05-14T00:16:13.226Z,3.63
2023-05-14T00:18:43.043Z,3.65
2023-05-14T00:21:13.092Z,4.07
2023-05-14T00:23:42.838Z,4.15
2023-05-14T00:26:12.418Z,3.10
2023-05-14T00:28:43.201Z,4.07
2023-05-14T00:31:15.517Z,4.18
2023-05-14T00:33:45.167Z,3.42
2023-05-14T00:36:14.772Z,3.63
2023-05-14T00:38:44.379Z,3.75
2023-05-14T00:41:14.003Z,3.92
2023-05-14T00:43:44.252Z,4.07
2023-05-14T00:46:17.421Z,3.65
2023-05-14T00:48:47.637Z,3.65
2023-05-14T00:51:17.294Z,4.18
2023-05-14T00:53:46.919Z,4.93
2023-05-14T00:56:16.778Z,4.15
2023-05-14T00:58:46.498Z,3.92
2023-05-14T01:01:18.836Z,4.20
2023-05-14T01:03:49.125Z,3.70
2023-05-14T01:06:27.004Z,3.95
2023-05-14T01:09:01.450Z,3.92
2023-05-14T01:11:32.845Z,4.38
2023-05-14T01:14:06.741Z,3.72
2023-05-14T01:16:40.217Z,3.72
2023-05-14T01:19:13.230Z,3.90
2023-05-14T01:21:46.448Z,4.22
2023-05-14T01:24:16.098Z,3.65
2023-05-14T01:26:45.683Z,4.03
2023-05-14T01:29:19.007Z,3.88
2023-05-14T01:31:50.073Z,4.10
2023-05-14T01:34:22.896Z,3.92
2023-05-14T01:36:56.351Z,4.20
2023-05-14T01:39:27.818Z,3.25
2023-05-14T01:41:58.235Z,3.65
2023-05-14T01:44:27.942Z,3.50
2023-05-14T01:46:57.600Z,4.30
2023-05-14T01:49:39.521Z,3.58
2023-05-14T01:52:12.309Z,3.83
2023-05-14T01:54:42.052Z,4.30
2023-05-14T01:57:11.696Z,3.47
2023-05-14T01:59:41.279Z,3.47
2023-05-14T02:02:11.328Z,3.35
2023-05-14T02:04:41.084Z,3.47
2023-05-14T02:07:13.318Z,4.00
2023-05-14T02:09:43.098Z,3.75
2023-05-14T02:12:12.882Z,3.72
2023-05-14T02:14:42.579Z,3.58
2023-05-14T02:17:12.250Z,3.72
2023-05-14T02:19:41.858Z,3.05
2023-05-14T02:22:14.045Z,2.83
2023-05-14T02:24:44.022Z,3.95
2023-05-14T02:27:14.238Z,3.70
2023-05-14T02:29:43.833Z,3.78
2023-05-14T02:32:13.437Z,3.67
2023-05-14T02:34:43.229Z,3.38
2023-05-14T02:37:15.411Z,3.70
2023-05-14T02:39:45.182Z,3.58
2023-05-14T02:42:14.764Z,3.40
2023-05-14T02:44:44.448Z,3.85
2023-05-14T02:47:14.073Z,3.38
2023-05-14T02:49:43.677Z,3.83
2023-05-14T02:52:15.961Z,3.50
2023-05-14T02:54:45.615Z,3.70
2023-05-14T02:57:15.246Z,3.65
2023-05-14T02:59:44.895Z,4.00
2023-05-14T03:02:14.906Z,3.70
2023-05-14T03:04:45.393Z,4.22
2023-05-14T03:07:17.668Z,3.58
2023-05-14T03:09:47.315Z,3.45
2023-05-14T03:12:17.031Z,3.58
2023-05-14T03:14:47.136Z,3.35
2023-05-14T03:17:16.747Z,3.22
2023-05-14T03:19:46.341Z,4.00
2023-05-14T03:22:18.639Z,3.50
2023-05-14T03:24:48.301Z,3.17
2023-05-14T03:27:17.911Z,3.83
2023-05-14T03:29:47.537Z,3.30
2023-05-14T03:32:17.477Z,3.90
2023-05-14T03:34:47.664Z,2.83
2023-05-14T03:37:19.823Z,3.50
2023-05-14T03:39:49.573Z,3.55
2023-05-14T03:42:19.155Z,3.65
2023-05-14T03:44:48.780Z,3.72
2023-05-14T03:47:18.509Z,4.15
2023-05-14T03:49:48.516Z,3.65
2023-05-14T03:52:21.305Z,3.70
2023-05-14T03:54:51.017Z,4.18
2023-05-14T03:57:21.240Z,3.42
2023-05-14T03:59:50.841Z,3.65
2023-05-14T04:02:22.294Z,3.88
2023-05-14T04:04:51.956Z,3.28
2023-05-14T04:07:25.822Z,3.83
2023-05-14T04:09:56.356Z,3.90
2023-05-14T04:12:26.959Z,3.42
2023-05-14T04:14:56.816Z,3.85
2023-05-14T04:17:26.518Z,3.55
2023-05-14T04:19:56.249Z,3.70
2023-05-14T04:22:29.637Z,3.60
2023-05-14T04:24:59.320Z,4.53
2023-05-14T04:27:28.850Z,3.88
2023-05-14T04:29:58.677Z,4.18
2023-05-14T04:32:28.436Z,3.83
2023-05-14T04:34:58.168Z,3.63
2023-05-14T04:37:31.126Z,3.70
2023-05-14T04:40:01.144Z,3.63
2023-05-14T04:42:30.867Z,4.00
2023-05-14T04:45:01.172Z,3.90
2023-05-14T04:47:30.873Z,3.53
2023-05-14T04:50:00.767Z,3.65
2023-05-14T04:52:33.128Z,3.83
2023-05-14T04:55:02.812Z,4.40
2023-05-14T04:57:32.468Z,3.72
2023-05-14T05:00:02.140Z,3.70
2023-05-14T05:02:31.851Z,4.43
2023-05-14T05:05:01.545Z,4.30
2023-05-14T05:07:33.687Z,3.95
2023-05-14T05:10:03.712Z,4.07
2023-05-14T05:12:33.315Z,3.58
2023-05-14T05:15:02.943Z,3.97
2023-05-14T05:17:32.735Z,3.92
2023-05-14T05:20:02.314Z,4.30
2023-05-14T05:22:34.545Z,3.90
2023-05-14T05:25:05.744Z,4.10
2023-05-14T16:02:51.376Z,2.38
2023-05-14T16:05:21.203Z,2.30
2023-05-14T16:07:50.871Z,2.20
2023-05-14T16:10:21.654Z,2.17
2023-05-14T16:12:51.459Z,2.30
2023-05-14T16:15:23.851Z,2.45
2023-05-14T16:17:56.237Z,2.20
2023-05-14T16:20:26.088Z,2.60
2023-05-14T16:22:55.820Z,1.90
2023-05-14T16:25:25.460Z,2.22
2023-05-14T16:27:55.325Z,2.28
2023-05-14T16:30:25.313Z,2.65
2023-05-14T16:32:57.956Z,2.65
2023-05-14T16:35:27.825Z,2.22
2023-05-14T16:37:57.471Z,2.42
2023-05-14T16:40:27.194Z,2.25
2023-05-14T16:42:56.737Z,2.13
2023-05-14T16:45:26.611Z,2.15
2023-05-14T16:48:01.195Z,2.15
2023-05-14T16:50:31.001Z,2.22
2023-05-14T16:53:00.607Z,2.05
2023-05-14T16:55:30.254Z,2.10
2023-05-14T16:57:59.869Z,2.00
2023-05-14T17:00:29.480Z,2.20
2023-05-14T17:03:02.860Z,2.15
2023-05-14T17:05:32.676Z,2.15
2023-05-14T17:08:02.235Z,2.88
2023-05-14T17:10:33.573Z,2.45
2023-05-14T17:13:03.566Z,2.88
2023-05-14T17:15:33.173Z,2.28
2023-05-14T17:18:05.496Z,2.25
2023-05-14T17:20:35.151Z,2.35
2023-05-14T17:23:04.727Z,2.70
2023-05-14T17:25:34.328Z,2.58
2023-05-14T17:28:03.918Z,2.60
2023-05-14T17:30:33.708Z,2.47
2023-05-14T17:33:06.190Z,2.40
2023-05-14T17:35:37.443Z,2.72
2023-05-14T17:38:07.100Z,2.47
2023-05-14T17:40:36.776Z,2.90
2023-05-14T17:43:06.373Z,2.33
2023-05-14T17:45:46.294Z,2.60
2023-05-14T17:48:26.034Z,2.60
2023-05-14T17:50:55.712Z,2.67
2023-05-14T17:53:25.262Z,2.65
2023-05-14T17:55:54.939Z,2.78
2023-05-14T17:58:24.560Z,2.38
2023-05-14T18:00:54.277Z,2.55
2023-05-14T18:03:27.033Z,3.15
2023-05-14T18:05:56.954Z,2.80
2023-05-14T18:08:26.725Z,2.95
2023-05-14T18:10:56.260Z,3.08
2023-05-14T18:13:25.939Z,3.05
2023-05-14T18:15:56.707Z,2.85
2023-05-14T18:18:29.204Z,2.45
2023-05-14T18:20:58.933Z,2.53
2023-05-14T18:23:28.586Z,1.77
2023-05-14T18:25:58.197Z,2.33
2023-05-14T18:28:27.894Z,2.03
2023-05-14T18:30:57.651Z,2.10
2023-05-14T18:33:30.052Z,2.28
2023-05-14T18:35:59.890Z,1.98
2023-05-14T18:38:29.547Z,1.75
2023-05-14T18:40:59.188Z,2.10
2023-05-14T18:43:28.806Z,1.77
2023-05-14T18:45:58.474Z,1.67
2023-05-14T18:48:30.752Z,1.67
2023-05-14T18:51:01.325Z,1.80
2023-05-14T18:53:31.648Z,1.90
2023-05-14T18:56:02.369Z,1.80
2023-05-14T18:58:31.940Z,2.15
2023-05-14T19:01:01.509Z,2.42
2023-05-14T19:03:34.406Z,1.52
2023-05-14T19:06:04.097Z,1.67
2023-05-14T19:08:33.769Z,1.80
2023-05-14T19:11:03.386Z,1.80
2023-05-14T19:13:32.962Z,2.30
2023-05-14T19:16:02.974Z,2.15
2023-05-14T19:18:35.369Z,2.03
2023-05-14T19:21:05.048Z,1.58
2023-05-14T19:23:34.701Z,2.05
2023-05-14T19:26:05.233Z,2.25
2023-05-14T19:28:34.887Z,2.30
2023-05-14T19:31:04.519Z,2.45
2023-05-14T19:33:36.750Z,2.67
2023-05-14T19:36:06.741Z,2.13
2023-05-14T19:38:36.408Z,2.70
2023-05-14T19:41:06.054Z,2.55
2023-05-14T19:43:35.688Z,2.70
2023-05-14T19:46:06.378Z,2.63
2023-05-14T19:48:39.177Z,2.58
2023-05-14T19:51:08.962Z,2.92
2023-05-14T19:53:38.636Z,2.70
2023-05-14T19:56:08.448Z,2.70
2023-05-14T19:58:38.090Z,2.80
2023-05-14T20:01:07.779Z,2.53
2023-05-14T20:03:39.971Z,3.28
2023-05-14T20:06:10.120Z,2.92
2023-05-14T20:08:40.044Z,3.45
2023-05-14T20:11:09.953Z,2.95
2023-05-14T20:13:39.578Z,3.00
2023-05-14T20:16:09.381Z,3.60
2023-05-14T20:18:41.634Z,2.60
2023-05-14T20:21:11.388Z,3.08
2023-05-14T20:23:41.042Z,3.13
2023-05-14T20:26:10.688Z,2.70
2023-05-14T20:28:40.367Z,3.03
2023-05-14T20:31:10.027Z,3.15
2023-05-14T20:33:42.533Z,2.78
2023-05-14T20:36:12.269Z,2.75
2023-05-14T20:38:41.975Z,2.67
2023-05-14T20:41:12.323Z,3.00
2023-05-14T20:43:41.992Z,3.00
2023-05-14T20:46:11.764Z,3.08
2023-05-14T20:48:44.056Z,3.20
2023-05-14T20:51:13.868Z,2.90
2023-05-14T20:53:43.556Z,3.45
2023-05-14T20:56:13.182Z,3.33
2023-05-14T20:58:42.847Z,2.85
2023-05-14T21:01:12.523Z,3.00
2023-05-14T21:03:44.841Z,2.80
2023-05-14T21:06:14.869Z,2.85
2023-05-14T21:08:44.569Z,3.03
2023-05-14T21:11:14.425Z,2.90
2023-05-14T21:13:45.855Z,3.05
2023-05-14T21:16:15.728Z,3.20
2023-05-14T21:18:48.133Z,2.70
2023-05-14T21:21:17.945Z,2.83
2023-05-14T21:23:50.896Z,3.00
2023-05-14T21:26:21.926Z,3.55
2023-05-14T21:28:51.662Z,3.08
2023-05-14T21:31:21.333Z,3.20
2023-05-14T21:33:53.656Z,3.05
2023-05-14T21:36:23.443Z,3.33
2023-05-14T21:38:53.183Z,2.92
2023-05-14T21:41:22.889Z,3.40
2023-05-14T21:43:52.555Z,3.10
2023-05-14T21:46:22.203Z,3.00
2023-05-14T21:48:54.561Z,2.67
2023-05-14T21:51:24.294Z,2.88
2023-05-14T21:53:53.930Z,3.28
2023-05-14T21:56:23.727Z,3.38
2023-05-14T21:58:55.716Z,3.55
2023-05-14T22:01:25.487Z,3.30
2023-05-14T22:03:58.209Z,3.35
2023-05-14T22:06:28.132Z,3.22
2023-05-14T22:08:57.824Z,3.20
2023-05-14T22:11:28.059Z,3.45
2023-05-14T22:13:57.683Z,3.22
2023-05-14T22:16:27.417Z,3.70
2023-05-14T22:18:59.883Z,3.20
2023-05-14T22:21:29.604Z,3.53
2023-05-14T22:23:59.246Z,3.70
2023-05-14T22:26:28.957Z,3.72
2023-05-14T22:28:58.754Z,3.45
2023-05-14T22:31:28.613Z,3.85
2023-05-14T22:34:00.867Z,3.72
2023-05-14T22:36:30.575Z,3.83
2023-05-14T22:39:00.273Z,4.00
2023-05-14T22:41:30.048Z,4.07
2023-05-14T22:43:59.762Z,3.80
2023-05-14T22:46:29.499Z,3.50
2023-05-14T22:49:01.861Z,3.88
2023-05-14T22:51:31.605Z,4.18
2023-05-14T22:54:01.306Z,3.20
2023-05-14T22:56:31.041Z,3.45
2023-05-14T22:59:00.752Z,3.45
2023-05-14T23:01:33.698Z,3.78
2023-05-14T23:04:06.227Z,3.63
2023-05-14T23:06:36.075Z,3.97
2023-05-14T23:09:05.728Z,3.20
2023-05-14T23:11:35.362Z,3.38
2023-05-14T23:14:05.048Z,3.53
2023-05-14T23:16:34.836Z,3.65
2023-05-14T23:19:07.357Z,3.20
2023-05-14T23:21:37.246Z,3.00
2023-05-14T23:24:07.123Z,3.28
2023-05-14T23:26:36.908Z,3.45
2023-05-14T23:29:06.577Z,3.10
2023-05-14T23:31:36.296Z,3.67
2023-05-14T23:34:08.616Z,3.30
2023-05-14T23:36:39.837Z,4.10
2023-05-14T23:39:09.514Z,3.83
2023-05-14T23:41:39.144Z,3.60
2023-05-14T23:44:08.798Z,4.10
2023-05-14T23:46:38.450Z,3.83
2023-05-14T23:49:10.793Z,4.22
2023-05-14T23:51:40.499Z,3.83
2023-05-14T23:54:10.154Z,3.83
2023-05-14T23:56:39.844Z,3.35
2023-05-14T23:59:09.504Z,3.75
